HVK374 LTBH-LOWW
Flight info
| Callsign | HVK374 |
|---|---|
| Flight time | N/A |
| Altitude | 32000 |
| Route | OLDOK1L/04 OLDOK DCT GKA DCT NISVA DCT DONIV DCT PARAK DCT BALUX DCT TORNO DCT NATEX NATEX2W |
| Aircraft | A400/H-SDE2E3FGHIJ4J5M1RWXY/LB1D1 |
Departure
| Time | 2026-05-05 12:45 |
|---|---|
| Airport | Çanakkale Airport (LTBH) |
Arrival
| Time | N/A |
|---|---|
| Airport | Vienna International Airport (LOWW) |
| Time | Latitude | Longitude | Altitude | Speed | Heading |
|---|---|---|---|---|---|
| 2026-05-05 12:19 | 40.13974 | 26.42573 | 37 ft | 0 kts | 54° |
| 2026-05-05 12:41 | 40.13971 | 26.42569 | 37 ft | 1 kts | 63° |
| 2026-05-05 12:41 | 40.13967 | 26.42563 | 36 ft | 1 kts | 90° |
| 2026-05-05 12:42 | 40.13967 | 26.42564 | 36 ft | 2 kts | 91° |
| 2026-05-05 12:42 | 40.13953 | 26.42626 | 38 ft | 12 kts | 119° |
| 2026-05-05 12:43 | 40.13883 | 26.42730 | 37 ft | 19 kts | 148° |
| 2026-05-05 12:43 | 40.13786 | 26.42703 | 36 ft | 18 kts | 219° |
| 2026-05-05 12:43 | 40.13666 | 26.42562 | 35 ft | 28 kts | 224° |
| 2026-05-05 12:43 | 40.13506 | 26.42370 | 33 ft | 34 kts | 220° |
| 2026-05-05 12:44 | 40.13314 | 26.42158 | 34 ft | 38 kts | 220° |
| 2026-05-05 12:44 | 40.13111 | 26.41929 | 32 ft | 37 kts | 220° |
| 2026-05-05 12:44 | 40.12930 | 26.41721 | 30 ft | 33 kts | 222° |
| 2026-05-05 12:44 | 40.12781 | 26.41540 | 30 ft | 14 kts | 213° |
| 2026-05-05 12:45 | 40.12773 | 26.41570 | 30 ft | 9 kts | 40° |
| 2026-05-05 12:45 | 40.13113 | 26.41949 | 33 ft | 124 kts | 41° |
| 2026-05-05 12:45 | 40.13994 | 26.42922 | 271 ft | 190 kts | 39° |
| 2026-05-05 12:45 | 40.15050 | 26.44089 | 1122 ft | 203 kts | 40° |
| 2026-05-05 12:46 | 40.16136 | 26.45314 | 2342 ft | 204 kts | 41° |
| 2026-05-05 12:46 | 40.17157 | 26.46503 | 3962 ft | 193 kts | 41° |
| 2026-05-05 12:46 | 40.18132 | 26.47638 | 5652 ft | 182 kts | 41° |
| 2026-05-05 12:46 | 40.19051 | 26.48702 | 7118 ft | 164 kts | 41° |
| 2026-05-05 12:47 | 40.19843 | 26.49616 | 8007 ft | 144 kts | 40° |
| 2026-05-05 12:47 | 40.20610 | 26.50496 | 8172 ft | 154 kts | 42° |
| 2026-05-05 12:47 | 40.21487 | 26.51601 | 8383 ft | 199 kts | 45° |
| 2026-05-05 12:47 | 40.22580 | 26.53104 | 8937 ft | 251 kts | 47° |
| 2026-05-05 12:48 | 40.23791 | 26.54913 | 9615 ft | 281 kts | 50° |
| 2026-05-05 12:48 | 40.24748 | 26.57220 | 10598 ft | 293 kts | 77° |
| 2026-05-05 12:48 | 40.24707 | 26.59874 | 11410 ft | 303 kts | 103° |
| 2026-05-05 12:48 | 40.24165 | 26.62578 | 11863 ft | 309 kts | 103° |
| 2026-05-05 12:49 | 40.23811 | 26.65361 | 11995 ft | 311 kts | 93° |
| 2026-05-05 12:49 | 40.24092 | 26.68191 | 12311 ft | 322 kts | 72° |
| 2026-05-05 12:49 | 40.25144 | 26.70815 | 13150 ft | 327 kts | 53° |
| 2026-05-05 12:49 | 40.26760 | 26.72860 | 13736 ft | 322 kts | 35° |
| 2026-05-05 12:50 | 40.28738 | 26.74148 | 13969 ft | 321 kts | 18° |
| 2026-05-05 12:50 | 40.30955 | 26.74629 | 14007 ft | 320 kts | 0° |
| 2026-05-05 12:50 | 40.33126 | 26.74281 | 14000 ft | 319 kts | 345° |
| 2026-05-05 12:50 | 40.35166 | 26.73162 | 13997 ft | 318 kts | 329° |
| 2026-05-05 12:51 | 40.36925 | 26.71413 | 14000 ft | 318 kts | 318° |
| 2026-05-05 12:51 | 40.38520 | 26.69406 | 13996 ft | 317 kts | 314° |
| 2026-05-05 12:51 | 40.40032 | 26.67285 | 13996 ft | 317 kts | 312° |
| 2026-05-05 12:51 | 40.41504 | 26.65124 | 14003 ft | 317 kts | 311° |
| 2026-05-05 12:52 | 40.42952 | 26.62981 | 13997 ft | 317 kts | 311° |
| 2026-05-05 12:52 | 40.44430 | 26.60810 | 14005 ft | 317 kts | 311° |
| 2026-05-05 12:52 | 40.45921 | 26.58649 | 14192 ft | 322 kts | 312° |
| 2026-05-05 12:52 | 40.47451 | 26.56456 | 15066 ft | 327 kts | 312° |
| 2026-05-05 12:53 | 40.48992 | 26.54262 | 16183 ft | 326 kts | 312° |
| 2026-05-05 12:53 | 40.50522 | 26.52092 | 17211 ft | 329 kts | 313° |
| 2026-05-05 12:53 | 40.52091 | 26.49869 | 18189 ft | 334 kts | 313° |
| 2026-05-05 12:53 | 40.53684 | 26.47610 | 19144 ft | 339 kts | 313° |
| 2026-05-05 12:54 | 40.56943 | 26.42982 | 20989 ft | 349 kts | 312° |
| 2026-05-05 12:54 | 40.58582 | 26.40650 | 21868 ft | 354 kts | 312° |
| 2026-05-05 12:54 | 40.60253 | 26.38270 | 22717 ft | 359 kts | 312° |
| 2026-05-05 12:55 | 40.61958 | 26.35840 | 23534 ft | 363 kts | 312° |
| 2026-05-05 12:55 | 40.63683 | 26.33380 | 24298 ft | 368 kts | 312° |
| 2026-05-05 12:55 | 40.65431 | 26.30883 | 25020 ft | 373 kts | 312° |
| 2026-05-05 12:55 | 40.67200 | 26.28355 | 25685 ft | 377 kts | 312° |
| 2026-05-05 12:56 | 40.68986 | 26.25801 | 26310 ft | 381 kts | 312° |
| 2026-05-05 12:56 | 40.70800 | 26.23204 | 26904 ft | 385 kts | 312° |
| 2026-05-05 12:56 | 40.72600 | 26.20626 | 27445 ft | 389 kts | 312° |
| 2026-05-05 12:56 | 40.74436 | 26.17993 | 27958 ft | 392 kts | 312° |
| 2026-05-05 12:57 | 40.76297 | 26.15323 | 28458 ft | 395 kts | 312° |
| 2026-05-05 12:57 | 40.78166 | 26.12639 | 28933 ft | 398 kts | 312° |
| 2026-05-05 12:57 | 40.80047 | 26.09934 | 29378 ft | 401 kts | 312° |
| 2026-05-05 12:57 | 40.81924 | 26.07233 | 29793 ft | 404 kts | 312° |
| 2026-05-05 12:58 | 40.83837 | 26.04477 | 30256 ft | 404 kts | 312° |
| 2026-05-05 12:58 | 40.85742 | 26.01731 | 30800 ft | 403 kts | 312° |
| 2026-05-05 12:58 | 40.87611 | 25.99034 | 31317 ft | 402 kts | 312° |
| 2026-05-05 12:58 | 40.89504 | 25.96300 | 31834 ft | 401 kts | 312° |
| 2026-05-05 12:59 | 40.91386 | 25.93579 | 32337 ft | 400 kts | 312° |
| 2026-05-05 12:59 | 40.93264 | 25.90862 | 32841 ft | 400 kts | 312° |
| 2026-05-05 12:59 | 40.95141 | 25.88143 | 33330 ft | 399 kts | 312° |
| 2026-05-05 13:00 | 40.98861 | 25.82747 | 34266 ft | 398 kts | 312° |
| 2026-05-05 13:00 | 41.00734 | 25.80028 | 34746 ft | 397 kts | 312° |
| 2026-05-05 13:01 | 41.06291 | 25.71943 | 36075 ft | 395 kts | 312° |
| 2026-05-05 13:01 | 41.08145 | 25.69240 | 36511 ft | 394 kts | 312° |
| 2026-05-05 13:01 | 41.09988 | 25.66551 | 36895 ft | 394 kts | 312° |
| 2026-05-05 13:01 | 41.11832 | 25.63859 | 37268 ft | 394 kts | 312° |
| 2026-05-05 13:02 | 41.13675 | 25.61165 | 37603 ft | 394 kts | 312° |
| 2026-05-05 13:02 | 41.15527 | 25.58457 | 37908 ft | 394 kts | 312° |
| 2026-05-05 13:02 | 41.17346 | 25.55793 | 38187 ft | 394 kts | 312° |
| 2026-05-05 13:02 | 41.19195 | 25.53083 | 38456 ft | 395 kts | 312° |
| 2026-05-05 13:03 | 41.21043 | 25.50373 | 38701 ft | 395 kts | 312° |
| 2026-05-05 13:03 | 41.22892 | 25.47658 | 38909 ft | 396 kts | 312° |
| 2026-05-05 13:03 | 41.24723 | 25.44968 | 39092 ft | 396 kts | 312° |
| 2026-05-05 13:03 | 41.26583 | 25.42232 | 39257 ft | 397 kts | 312° |
| 2026-05-05 13:04 | 41.28419 | 25.39529 | 39418 ft | 398 kts | 312° |
| 2026-05-05 13:04 | 41.30271 | 25.36801 | 39594 ft | 398 kts | 312° |
| 2026-05-05 13:04 | 41.32127 | 25.34064 | 39776 ft | 397 kts | 311° |
| 2026-05-05 13:04 | 41.33977 | 25.31333 | 39945 ft | 396 kts | 311° |
| 2026-05-05 13:05 | 41.37670 | 25.25874 | 40002 ft | 397 kts | 311° |
| 2026-05-05 13:05 | 41.41374 | 25.20389 | 39998 ft | 397 kts | 311° |
| 2026-05-05 13:06 | 41.45046 | 25.14940 | 40000 ft | 398 kts | 311° |
| 2026-05-05 13:06 | 41.48752 | 25.09432 | 39997 ft | 398 kts | 311° |
| 2026-05-05 13:07 | 41.52460 | 25.03910 | 40001 ft | 399 kts | 311° |
| 2026-05-05 13:07 | 41.56144 | 24.98415 | 40000 ft | 399 kts | 311° |
| 2026-05-05 13:08 | 41.59851 | 24.92874 | 40008 ft | 400 kts | 311° |
| 2026-05-05 13:08 | 41.63572 | 24.87302 | 40212 ft | 401 kts | 311° |
| 2026-05-05 13:09 | 41.67292 | 24.81720 | 40377 ft | 402 kts | 311° |
| 2026-05-05 13:09 | 41.70995 | 24.76155 | 40482 ft | 403 kts | 311° |
| 2026-05-05 13:10 | 41.74741 | 24.70514 | 40617 ft | 403 kts | 311° |
| 2026-05-05 13:10 | 41.78438 | 24.64935 | 40763 ft | 403 kts | 311° |
| 2026-05-05 13:11 | 41.81533 | 24.60257 | 40872 ft | 402 kts | 311° |
| 2026-05-05 13:11 | 41.85866 | 24.53697 | 40917 ft | 404 kts | 311° |
| 2026-05-05 13:12 | 41.88960 | 24.49002 | 40993 ft | 403 kts | 311° |
| 2026-05-05 13:12 | 41.92691 | 24.43331 | 41171 ft | 402 kts | 311° |
| 2026-05-05 13:13 | 41.94517 | 24.40553 | 41273 ft | 400 kts | 311° |
| 2026-05-05 13:13 | 41.96364 | 24.37739 | 41309 ft | 401 kts | 311° |
| 2026-05-05 13:13 | 42.00059 | 24.32102 | 41307 ft | 402 kts | 311° |
| 2026-05-05 13:14 | 42.03735 | 24.26482 | 41459 ft | 400 kts | 311° |
| 2026-05-05 13:14 | 42.07414 | 24.20849 | 41520 ft | 400 kts | 311° |
| 2026-05-05 13:15 | 42.11098 | 24.15195 | 41575 ft | 401 kts | 311° |
| 2026-05-05 13:15 | 42.14758 | 24.09570 | 41634 ft | 400 kts | 311° |
| 2026-05-05 13:16 | 42.18434 | 24.03908 | 41717 ft | 400 kts | 311° |
| 2026-05-05 13:16 | 42.22070 | 23.98296 | 41840 ft | 398 kts | 311° |
| 2026-05-05 13:17 | 42.25718 | 23.92657 | 41950 ft | 398 kts | 311° |
| 2026-05-05 13:17 | 42.29357 | 23.87018 | 42003 ft | 398 kts | 311° |
| 2026-05-05 13:18 | 42.32992 | 23.81378 | 42054 ft | 398 kts | 311° |
| 2026-05-05 13:18 | 42.36585 | 23.75790 | 42161 ft | 395 kts | 310° |
| 2026-05-05 13:19 | 42.40190 | 23.70173 | 42217 ft | 395 kts | 310° |
| 2026-05-05 13:19 | 42.43791 | 23.64552 | 42263 ft | 394 kts | 310° |
| 2026-05-05 13:20 | 42.47501 | 23.59094 | 42310 ft | 393 kts | 319° |
| 2026-05-05 13:20 | 42.51848 | 23.54682 | 42359 ft | 392 kts | 326° |
| 2026-05-05 13:21 | 42.56418 | 23.50631 | 42408 ft | 391 kts | 327° |
| 2026-05-05 13:21 | 42.61014 | 23.46659 | 42459 ft | 390 kts | 327° |
| 2026-05-05 13:22 | 42.65582 | 23.42671 | 42507 ft | 390 kts | 327° |
| 2026-05-05 13:22 | 42.70117 | 23.38673 | 42556 ft | 390 kts | 327° |
| 2026-05-05 13:23 | 42.74644 | 23.34662 | 42612 ft | 389 kts | 327° |
| 2026-05-05 13:23 | 42.79191 | 23.30625 | 42656 ft | 389 kts | 327° |
| 2026-05-05 13:24 | 42.83719 | 23.26600 | 42708 ft | 388 kts | 326° |
| 2026-05-05 13:24 | 42.88208 | 23.22604 | 42747 ft | 387 kts | 326° |
| 2026-05-05 13:25 | 42.92727 | 23.18574 | 42794 ft | 386 kts | 326° |
| 2026-05-05 13:25 | 42.97192 | 23.14585 | 42837 ft | 385 kts | 326° |
| 2026-05-05 13:26 | 43.01676 | 23.10571 | 42889 ft | 383 kts | 326° |
| 2026-05-05 13:26 | 43.06116 | 23.06590 | 42891 ft | 383 kts | 326° |
| 2026-05-05 13:27 | 43.10560 | 23.02598 | 42886 ft | 383 kts | 326° |
| 2026-05-05 13:27 | 43.15012 | 22.98593 | 42873 ft | 379 kts | 326° |
| 2026-05-05 13:28 | 43.19417 | 22.94623 | 42806 ft | 378 kts | 326° |
| 2026-05-05 13:28 | 43.23762 | 22.90699 | 42893 ft | 374 kts | 326° |
| 2026-05-05 13:29 | 43.28115 | 22.86762 | 42988 ft | 372 kts | 326° |
| 2026-05-05 13:29 | 43.32410 | 22.82870 | 42997 ft | 371 kts | 326° |
| 2026-05-05 13:30 | 43.36728 | 22.78951 | 42999 ft | 370 kts | 326° |
| 2026-05-05 13:30 | 43.41025 | 22.75044 | 43004 ft | 370 kts | 326° |
| 2026-05-05 13:31 | 43.45304 | 22.71147 | 43002 ft | 371 kts | 326° |
| 2026-05-05 13:31 | 43.49611 | 22.67217 | 43001 ft | 371 kts | 326° |
| 2026-05-05 13:32 | 43.53932 | 22.63268 | 43000 ft | 373 kts | 326° |
| 2026-05-05 13:32 | 43.58236 | 22.59328 | 43003 ft | 374 kts | 326° |
| 2026-05-05 13:33 | 43.62580 | 22.55344 | 42999 ft | 375 kts | 326° |
| 2026-05-05 13:33 | 43.66942 | 22.51336 | 43000 ft | 376 kts | 326° |
| 2026-05-05 13:34 | 43.71276 | 22.47347 | 42999 ft | 377 kts | 326° |
| 2026-05-05 13:34 | 43.75663 | 22.43303 | 43001 ft | 378 kts | 326° |
| 2026-05-05 13:35 | 43.80021 | 22.39277 | 43001 ft | 379 kts | 326° |
| 2026-05-05 13:35 | 43.84411 | 22.35215 | 43003 ft | 380 kts | 326° |
| 2026-05-05 13:36 | 43.88815 | 22.31133 | 43001 ft | 381 kts | 326° |
| 2026-05-05 13:36 | 43.93207 | 22.27054 | 43000 ft | 382 kts | 326° |
| 2026-05-05 13:37 | 43.97639 | 22.22931 | 43000 ft | 383 kts | 326° |
| 2026-05-05 13:37 | 44.02073 | 22.18798 | 43000 ft | 384 kts | 326° |
| 2026-05-05 13:38 | 44.06522 | 22.14644 | 42999 ft | 385 kts | 326° |
| 2026-05-05 13:38 | 44.10945 | 22.10506 | 43000 ft | 385 kts | 326° |
| 2026-05-05 13:39 | 44.15399 | 22.06331 | 42999 ft | 385 kts | 326° |
| 2026-05-05 13:39 | 44.19858 | 22.02145 | 43001 ft | 385 kts | 326° |
| 2026-05-05 13:40 | 44.23987 | 21.97401 | 42999 ft | 385 kts | 316° |
| 2026-05-05 13:40 | 44.27778 | 21.92185 | 43001 ft | 385 kts | 315° |
| 2026-05-05 13:41 | 44.31619 | 21.86960 | 42999 ft | 385 kts | 315° |
| 2026-05-05 13:41 | 44.35466 | 21.81749 | 43000 ft | 385 kts | 315° |
| 2026-05-05 13:42 | 44.39287 | 21.76568 | 43004 ft | 385 kts | 315° |
| 2026-05-05 13:42 | 44.43138 | 21.71343 | 43001 ft | 385 kts | 315° |
| 2026-05-05 13:43 | 44.47001 | 21.66099 | 43006 ft | 386 kts | 315° |
| 2026-05-05 13:43 | 44.50842 | 21.60880 | 43001 ft | 387 kts | 315° |
| 2026-05-05 13:44 | 44.54719 | 21.55609 | 43004 ft | 387 kts | 315° |
| 2026-05-05 13:44 | 44.58572 | 21.50365 | 43000 ft | 388 kts | 315° |
| 2026-05-05 13:45 | 44.62456 | 21.45076 | 42999 ft | 388 kts | 315° |
| 2026-05-05 13:45 | 44.66341 | 21.39781 | 43000 ft | 389 kts | 315° |
| 2026-05-05 13:46 | 44.70446 | 21.34881 | 42999 ft | 389 kts | 325° |
| 2026-05-05 13:46 | 44.75013 | 21.30745 | 43000 ft | 390 kts | 328° |
| 2026-05-05 13:47 | 44.79675 | 21.26841 | 43000 ft | 390 kts | 329° |
| 2026-05-05 13:47 | 44.84333 | 21.22993 | 43000 ft | 390 kts | 329° |
| 2026-05-05 13:48 | 44.89024 | 21.19090 | 43000 ft | 391 kts | 329° |
| 2026-05-05 13:48 | 44.93676 | 21.15192 | 42999 ft | 391 kts | 329° |
| 2026-05-05 13:49 | 44.98361 | 21.11251 | 42999 ft | 391 kts | 329° |
| 2026-05-05 13:49 | 45.03019 | 21.07326 | 42999 ft | 391 kts | 329° |
| 2026-05-05 13:50 | 45.07700 | 21.03374 | 43002 ft | 391 kts | 329° |
| 2026-05-05 13:50 | 45.12379 | 20.99417 | 42999 ft | 391 kts | 329° |
| 2026-05-05 13:51 | 45.17060 | 20.95452 | 43001 ft | 392 kts | 329° |
| 2026-05-05 13:51 | 45.21712 | 20.91502 | 42999 ft | 392 kts | 329° |
| 2026-05-05 13:52 | 45.26397 | 20.87518 | 43000 ft | 392 kts | 329° |
| 2026-05-05 13:52 | 45.31071 | 20.83534 | 42782 ft | 397 kts | 329° |
| 2026-05-05 13:53 | 45.33438 | 20.81514 | 42535 ft | 397 kts | 329° |
| 2026-05-05 13:53 | 45.35806 | 20.79491 | 42290 ft | 396 kts | 329° |
| 2026-05-05 13:53 | 45.38181 | 20.77460 | 42038 ft | 396 kts | 328° |
| 2026-05-05 13:53 | 45.40551 | 20.75432 | 41785 ft | 396 kts | 328° |
| 2026-05-05 13:54 | 45.42886 | 20.73431 | 41547 ft | 396 kts | 328° |
| 2026-05-05 13:54 | 45.45248 | 20.71405 | 41306 ft | 396 kts | 328° |
| 2026-05-05 13:54 | 45.47618 | 20.69370 | 41050 ft | 396 kts | 328° |
| 2026-05-05 13:54 | 45.49986 | 20.67334 | 40802 ft | 396 kts | 328° |
| 2026-05-05 13:55 | 45.52349 | 20.65302 | 40558 ft | 396 kts | 328° |
| 2026-05-05 13:55 | 45.54676 | 20.63298 | 40310 ft | 396 kts | 328° |
| 2026-05-05 13:55 | 45.57044 | 20.61257 | 40055 ft | 396 kts | 328° |
| 2026-05-05 13:55 | 45.59408 | 20.59218 | 39812 ft | 396 kts | 328° |
| 2026-05-05 13:56 | 45.61768 | 20.57179 | 39570 ft | 396 kts | 328° |
| 2026-05-05 13:56 | 45.64097 | 20.55166 | 39321 ft | 396 kts | 328° |
| 2026-05-05 13:56 | 45.66458 | 20.53122 | 39075 ft | 396 kts | 328° |
| 2026-05-05 13:56 | 45.68813 | 20.51082 | 38824 ft | 396 kts | 328° |
| 2026-05-05 13:57 | 45.71179 | 20.49031 | 38576 ft | 396 kts | 328° |
| 2026-05-05 13:57 | 45.73537 | 20.46984 | 38328 ft | 396 kts | 328° |
| 2026-05-05 13:57 | 45.75892 | 20.44938 | 38084 ft | 396 kts | 328° |
| 2026-05-05 13:57 | 45.78216 | 20.42917 | 37837 ft | 396 kts | 328° |
| 2026-05-05 13:58 | 45.80570 | 20.40867 | 37587 ft | 396 kts | 328° |
| 2026-05-05 13:58 | 45.82927 | 20.38813 | 37340 ft | 396 kts | 328° |
| 2026-05-05 13:58 | 45.84519 | 20.37425 | 37166 ft | 396 kts | 328° |
| 2026-05-05 13:58 | 45.86843 | 20.35396 | 36917 ft | 396 kts | 328° |
| 2026-05-05 13:59 | 45.91555 | 20.31277 | 36431 ft | 395 kts | 328° |
| 2026-05-05 13:59 | 45.93908 | 20.29217 | 36180 ft | 395 kts | 328° |
| 2026-05-05 14:00 | 45.98611 | 20.25093 | 35684 ft | 396 kts | 328° |
| 2026-05-05 14:00 | 46.00962 | 20.23029 | 35436 ft | 396 kts | 328° |
| 2026-05-05 14:00 | 46.03289 | 20.20983 | 35190 ft | 397 kts | 328° |
| 2026-05-05 14:00 | 46.05652 | 20.18903 | 34949 ft | 397 kts | 328° |
| 2026-05-05 14:01 | 46.07975 | 20.16776 | 34694 ft | 397 kts | 324° |
| 2026-05-05 14:01 | 46.10107 | 20.14211 | 34437 ft | 397 kts | 315° |
| 2026-05-05 14:01 | 46.11965 | 20.11256 | 34196 ft | 398 kts | 310° |